sensor_id;sensor_type;location;lat;lon;timestamp;pressure;altitude;pressure_sealevel;temperature;humidity
45323;BME280;31382;50.200;8.674;2024-02-16T00:02:38;100151.66;;;12.53;70.57
45323;BME280;31382;50.200;8.674;2024-02-16T00:07:40;100159.34;;;12.56;70.59
45323;BME280;31382;50.200;8.674;2024-02-16T00:12:41;100147.72;;;12.55;70.59
45323;BME280;31382;50.200;8.674;2024-02-16T00:17:43;100149.28;;;12.43;70.65
45323;BME280;31382;50.200;8.674;2024-02-16T00:22:45;100144.16;;;12.48;70.79
45323;BME280;31382;50.200;8.674;2024-02-16T00:27:46;100141.56;;;12.40;70.64
45323;BME280;31382;50.200;8.674;2024-02-16T00:32:48;100143.16;;;12.34;71.08
45323;BME280;31382;50.200;8.674;2024-02-16T00:37:50;100135.44;;;12.24;71.46
45323;BME280;31382;50.200;8.674;2024-02-16T00:42:53;100130.88;;;12.25;71.04
45323;BME280;31382;50.200;8.674;2024-02-16T00:47:55;100142.97;;;12.36;70.93
45323;BME280;31382;50.200;8.674;2024-02-16T00:52:58;100128.63;;;12.28;70.69
45323;BME280;31382;50.200;8.674;2024-02-16T00:58:01;100131.09;;;12.30;70.89
45323;BME280;31382;50.200;8.674;2024-02-16T01:03:03;100122.78;;;12.25;71.12
45323;BME280;31382;50.200;8.674;2024-02-16T01:08:05;100126.13;;;12.27;71.10
45323;BME280;31382;50.200;8.674;2024-02-16T01:13:06;100123.59;;;12.25;70.83
45323;BME280;31382;50.200;8.674;2024-02-16T01:18:08;100115.97;;;12.29;70.66
45323;BME280;31382;50.200;8.674;2024-02-16T01:23:09;100119.50;;;12.29;70.59
45323;BME280;31382;50.200;8.674;2024-02-16T01:28:13;100122.38;;;12.28;70.88
45323;BME280;31382;50.200;8.674;2024-02-16T01:33:14;100122.31;;;12.21;70.91
45323;BME280;31382;50.200;8.674;2024-02-16T01:38:16;100107.63;;;12.24;70.67
45323;BME280;31382;50.200;8.674;2024-02-16T01:43:21;100111.19;;;12.24;70.59
45323;BME280;31382;50.200;8.674;2024-02-16T01:48:22;100114.69;;;12.25;70.46
45323;BME280;31382;50.200;8.674;2024-02-16T01:53:24;100112.56;;;12.20;70.83
45323;BME280;31382;50.200;8.674;2024-02-16T01:58:26;100118.94;;;12.13;71.35
45323;BME280;31382;50.200;8.674;2024-02-16T02:03:28;100122.47;;;12.13;71.34
45323;BME280;31382;50.200;8.674;2024-02-16T02:08:30;100121.00;;;12.10;71.04
45323;BME280;31382;50.200;8.674;2024-02-16T02:13:32;100124.13;;;12.14;71.13
45323;BME280;31382;50.200;8.674;2024-02-16T02:18:36;100114.88;;;12.02;71.06
45323;BME280;31382;50.200;8.674;2024-02-16T02:23:38;100113.88;;;12.03;71.17
45323;BME280;31382;50.200;8.674;2024-02-16T02:28:39;100113.47;;;12.06;70.88
45323;BME280;31382;50.200;8.674;2024-02-16T02:33:41;100102.63;;;11.99;71.50
45323;BME280;31382;50.200;8.674;2024-02-16T02:38:42;100094.91;;;11.96;70.97
45323;BME280;31382;50.200;8.674;2024-02-16T02:43:45;100091.03;;;11.99;71.07
45323;BME280;31382;50.200;8.674;2024-02-16T02:48:47;100090.03;;;11.85;71.38
45323;BME280;31382;50.200;8.674;2024-02-16T02:53:53;100093.38;;;11.87;71.55
45323;BME280;31382;50.200;8.674;2024-02-16T02:58:54;100112.22;;;11.87;71.06
45323;BME280;31382;50.200;8.674;2024-02-16T03:03:56;100088.34;;;11.84;71.12
45323;BME280;31382;50.200;8.674;2024-02-16T03:08:57;100089.16;;;11.84;71.16
45323;BME280;31382;50.200;8.674;2024-02-16T03:13:59;100097.06;;;11.86;71.22
45323;BME280;31382;50.200;8.674;2024-02-16T03:19:01;100112.41;;;11.85;71.06
45323;BME280;31382;50.200;8.674;2024-02-16T03:24:03;100113.63;;;11.83;71.09
45323;BME280;31382;50.200;8.674;2024-02-16T03:29:05;100110.78;;;11.69;71.84
45323;BME280;31382;50.200;8.674;2024-02-16T03:34:06;100107.50;;;11.74;71.62
45323;BME280;31382;50.200;8.674;2024-02-16T03:39:08;100095.91;;;11.74;71.50
45323;BME280;31382;50.200;8.674;2024-02-16T03:44:10;100105.56;;;11.68;71.43
45323;BME280;31382;50.200;8.674;2024-02-16T03:49:12;100103.88;;;11.67;71.40
45323;BME280;31382;50.200;8.674;2024-02-16T03:54:13;100098.31;;;11.68;71.37
45323;BME280;31382;50.200;8.674;2024-02-16T03:59:15;100108.91;;;11.70;71.57
45323;BME280;31382;50.200;8.674;2024-02-16T04:04:17;100111.78;;;11.68;71.20
45323;BME280;31382;50.200;8.674;2024-02-16T04:09:18;100119.84;;;11.68;71.67
45323;BME280;31382;50.200;8.674;2024-02-16T04:14:20;100118.84;;;11.69;71.23
45323;BME280;31382;50.200;8.674;2024-02-16T04:19:22;100119.66;;;11.70;71.41
45323;BME280;31382;50.200;8.674;2024-02-16T04:24:23;100120.91;;;11.67;71.65
45323;BME280;31382;50.200;8.674;2024-02-16T04:29:25;100131.84;;;11.66;71.42
45323;BME280;31382;50.200;8.674;2024-02-16T04:34:26;100138.25;;;11.65;71.23
45323;BME280;31382;50.200;8.674;2024-02-16T04:39:30;100130.56;;;11.62;71.37
45323;BME280;31382;50.200;8.674;2024-02-16T04:44:31;100134.00;;;11.56;71.58
45323;BME280;31382;50.200;8.674;2024-02-16T04:49:33;100129.44;;;11.56;71.82
45323;BME280;31382;50.200;8.674;2024-02-16T04:54:34;100110.88;;;11.61;71.43
45323;BME280;31382;50.200;8.674;2024-02-16T04:59:37;100117.56;;;11.65;71.71
45323;BME280;31382;50.200;8.674;2024-02-16T05:04:39;100131.41;;;11.32;72.64
45323;BME280;31382;50.200;8.674;2024-02-16T05:09:41;100140.44;;;11.40;72.86
45323;BME280;31382;50.200;8.674;2024-02-16T05:14:42;100138.19;;;11.43;72.43
45323;BME280;31382;50.200;8.674;2024-02-16T05:19:44;100124.75;;;11.43;72.23
45323;BME280;31382;50.200;8.674;2024-02-16T05:24:48;100127.63;;;11.42;72.32
45323;BME280;31382;50.200;8.674;2024-02-16T05:29:49;100124.06;;;11.41;72.53
45323;BME280;31382;50.200;8.674;2024-02-16T05:34:52;100130.66;;;11.39;72.63
45323;BME280;31382;50.200;8.674;2024-02-16T05:39:56;100131.31;;;11.41;72.64
45323;BME280;31382;50.200;8.674;2024-02-16T05:45:20;100119.38;;;11.43;72.86
45323;BME280;31382;50.200;8.674;2024-02-16T05:50:23;100115.44;;;11.46;72.44
45323;BME280;31382;50.200;8.674;2024-02-16T05:55:25;100113.59;;;11.46;72.25
45323;BME280;31382;50.200;8.674;2024-02-16T06:00:26;100125.75;;;11.42;72.71
45323;BME280;31382;50.200;8.674;2024-02-16T06:05:28;100119.25;;;11.37;73.16
45323;BME280;31382;50.200;8.674;2024-02-16T06:10:30;100134.41;;;11.38;72.95
45323;BME280;31382;50.200;8.674;2024-02-16T06:15:32;100139.56;;;11.39;72.97
45323;BME280;31382;50.200;8.674;2024-02-16T06:20:34;100133.28;;;11.32;72.93
45323;BME280;31382;50.200;8.674;2024-02-16T06:25:36;100136.63;;;11.34;73.04
45323;BME280;31382;50.200;8.674;2024-02-16T06:30:38;100139.94;;;11.36;73.29
45323;BME280;31382;50.200;8.674;2024-02-16T06:35:39;100152.84;;;11.41;72.93
45323;BME280;31382;50.200;8.674;2024-02-16T06:40:41;100147.28;;;11.42;73.00
45323;BME280;31382;50.200;8.674;2024-02-16T06:45:42;100154.25;;;11.22;73.26
45323;BME280;31382;50.200;8.674;2024-02-16T06:50:44;100144.22;;;11.30;73.30
45323;BME280;31382;50.200;8.674;2024-02-16T06:55:45;100152.59;;;11.36;73.21
45323;BME280;31382;50.200;8.674;2024-02-16T07:00:47;100157.22;;;11.42;73.38
45323;BME280;31382;50.200;8.674;2024-02-16T07:05:49;100160.47;;;11.52;73.29
45323;BME280;31382;50.200;8.674;2024-02-16T07:10:51;100155.25;;;11.65;73.16
45323;BME280;31382;50.200;8.674;2024-02-16T07:15:54;100171.94;;;11.76;72.91
45323;BME280;31382;50.200;8.674;2024-02-16T07:20:56;100169.31;;;11.82;73.05
45323;BME280;31382;50.200;8.674;2024-02-16T07:25:58;100186.16;;;11.99;73.22
45323;BME280;31382;50.200;8.674;2024-02-16T07:31:01;100183.59;;;12.13;72.81
45323;BME280;31382;50.200;8.674;2024-02-16T07:36:03;100188.34;;;12.32;73.01
45323;BME280;31382;50.200;8.674;2024-02-16T07:41:05;100181.50;;;12.51;72.96
45323;BME280;31382;50.200;8.674;2024-02-16T07:46:10;100183.16;;;12.74;73.02
45323;BME280;31382;50.200;8.674;2024-02-16T07:51:11;100193.16;;;13.01;72.66
45323;BME280;31382;50.200;8.674;2024-02-16T07:56:14;100211.56;;;13.19;72.51
45323;BME280;31382;50.200;8.674;2024-02-16T08:01:16;100205.03;;;13.35;72.37
45323;BME280;31382;50.200;8.674;2024-02-16T08:06:18;100206.00;;;13.56;72.13
45323;BME280;31382;50.200;8.674;2024-02-16T08:11:22;100196.75;;;13.78;71.74
45323;BME280;31382;50.200;8.674;2024-02-16T08:16:24;100194.91;;;13.85;71.47
45323;BME280;31382;50.200;8.674;2024-02-16T08:21:26;100200.75;;;13.89;71.17
45323;BME280;31382;50.200;8.674;2024-02-16T08:26:27;100209.50;;;13.91;71.01
45323;BME280;31382;50.200;8.674;2024-02-16T08:31:29;100216.59;;;13.99;70.85
45323;BME280;31382;50.200;8.674;2024-02-16T08:36:31;100226.22;;;14.08;70.53
45323;BME280;31382;50.200;8.674;2024-02-16T08:41:33;100208.94;;;14.16;70.35
45323;BME280;31382;50.200;8.674;2024-02-16T08:46:35;100207.72;;;14.18;70.15
45323;BME280;31382;50.200;8.674;2024-02-16T08:51:37;100216.47;;;14.27;69.83
45323;BME280;31382;50.200;8.674;2024-02-16T08:56:39;100219.22;;;14.34;69.45
45323;BME280;31382;50.200;8.674;2024-02-16T09:01:43;100229.84;;;14.48;68.85
45323;BME280;31382;50.200;8.674;2024-02-16T09:06:44;100235.13;;;14.70;68.43
45323;BME280;31382;50.200;8.674;2024-02-16T09:11:46;100237.84;;;14.70;68.43
45323;BME280;31382;50.200;8.674;2024-02-16T09:16:49;100243.03;;;14.72;68.10
45323;BME280;31382;50.200;8.674;2024-02-16T09:21:53;100241.38;;;14.84;67.80
45323;BME280;31382;50.200;8.674;2024-02-16T09:26:59;100245.56;;;15.00;67.27
45323;BME280;31382;50.200;8.674;2024-02-16T09:32:05;100250.75;;;15.08;67.01
45323;BME280;31382;50.200;8.674;2024-02-16T09:37:07;100256.19;;;15.15;66.59
45323;BME280;31382;50.200;8.674;2024-02-16T09:42:08;100260.16;;;15.19;66.51
45323;BME280;31382;50.200;8.674;2024-02-16T09:47:10;100259.31;;;15.12;66.45
45323;BME280;31382;50.200;8.674;2024-02-16T09:52:14;100267.00;;;15.08;66.30
45323;BME280;31382;50.200;8.674;2024-02-16T09:57:18;100264.72;;;15.18;65.91
45323;BME280;31382;50.200;8.674;2024-02-16T10:02:20;100257.84;;;15.22;65.48
45323;BME280;31382;50.200;8.674;2024-02-16T10:07:31;100260.34;;;15.37;65.26
45323;BME280;31382;50.200;8.674;2024-02-16T10:12:33;100264.69;;;15.65;64.70
45323;BME280;31382;50.200;8.674;2024-02-16T10:17:35;100278.03;;;15.73;64.46
45323;BME280;31382;50.200;8.674;2024-02-16T10:22:37;100278.44;;;15.77;63.98
45323;BME280;31382;50.200;8.674;2024-02-16T10:27:46;100289.50;;;15.75;64.00
45323;BME280;31382;50.200;8.674;2024-02-16T10:32:50;100298.81;;;15.99;63.33
45323;BME280;31382;50.200;8.674;2024-02-16T10:37:51;100296.25;;;16.24;62.50
45323;BME280;31382;50.200;8.674;2024-02-16T10:42:54;100306.66;;;16.28;62.05
45323;BME280;31382;50.200;8.674;2024-02-16T10:47:56;100319.16;;;16.35;62.15
45323;BME280;31382;50.200;8.674;2024-02-16T10:53:03;100302.69;;;16.30;62.07
45323;BME280;31382;50.200;8.674;2024-02-16T10:58:07;100292.25;;;16.27;61.79
45323;BME280;31382;50.200;8.674;2024-02-16T11:03:16;100298.50;;;16.34;61.49
45323;BME280;31382;50.200;8.674;2024-02-16T11:08:20;100300.28;;;16.54;61.05
45323;BME280;31382;50.200;8.674;2024-02-16T11:13:23;100301.03;;;16.68;60.56
45323;BME280;31382;50.200;8.674;2024-02-16T11:18:31;100285.53;;;16.81;60.24
45323;BME280;31382;50.200;8.674;2024-02-16T11:23:35;100296.34;;;16.88;60.02
45323;BME280;31382;50.200;8.674;2024-02-16T11:28:37;100290.84;;;17.01;59.68
45323;BME280;31382;50.200;8.674;2024-02-16T11:33:43;100303.00;;;16.92;59.46
45323;BME280;31382;50.200;8.674;2024-02-16T11:38:47;100302.09;;;17.05;59.22
45323;BME280;31382;50.200;8.674;2024-02-16T11:43:48;100290.22;;;16.99;59.48
45323;BME280;31382;50.200;8.674;2024-02-16T11:48:50;100298.50;;;17.11;59.18
45323;BME280;31382;50.200;8.674;2024-02-16T11:53:56;100300.38;;;17.11;58.77
45323;BME280;31382;50.200;8.674;2024-02-16T11:58:58;100293.94;;;17.05;58.60
45323;BME280;31382;50.200;8.674;2024-02-16T12:04:06;100291.69;;;17.27;58.77
45323;BME280;31382;50.200;8.674;2024-02-16T12:09:08;100295.59;;;17.38;57.85
45323;BME280;31382;50.200;8.674;2024-02-16T12:14:10;100289.09;;;17.39;57.58
45323;BME280;31382;50.200;8.674;2024-02-16T12:19:12;100292.59;;;17.46;57.45
45323;BME280;31382;50.200;8.674;2024-02-16T12:24:13;100297.63;;;17.42;57.45
45323;BME280;31382;50.200;8.674;2024-02-16T12:29:16;100299.53;;;17.42;57.55
45323;BME280;31382;50.200;8.674;2024-02-16T12:34:17;100303.44;;;17.46;57.48
45323;BME280;31382;50.200;8.674;2024-02-16T12:39:20;100303.66;;;17.44;57.48
45323;BME280;31382;50.200;8.674;2024-02-16T12:44:21;100306.59;;;17.43;57.72
45323;BME280;31382;50.200;8.674;2024-02-16T12:49:23;100308.47;;;17.68;57.32
45323;BME280;31382;50.200;8.674;2024-02-16T12:54:26;100318.91;;;17.96;56.61
45323;BME280;31382;50.200;8.674;2024-02-16T12:59:27;100318.97;;;18.08;56.37
45323;BME280;31382;50.200;8.674;2024-02-16T13:04:29;100310.66;;;18.39;55.70
45323;BME280;31382;50.200;8.674;2024-02-16T13:09:33;100312.19;;;18.66;54.95
45323;BME280;31382;50.200;8.674;2024-02-16T13:14:34;100296.78;;;18.90;54.57
45323;BME280;31382;50.200;8.674;2024-02-16T13:19:36;100301.72;;;19.23;53.57
45323;BME280;31382;50.200;8.674;2024-02-16T13:24:37;100295.09;;;19.19;53.90
45323;BME280;31382;50.200;8.674;2024-02-16T13:29:39;100300.66;;;19.12;53.60
45323;BME280;31382;50.200;8.674;2024-02-16T13:34:41;100290.78;;;18.99;53.72
45323;BME280;31382;50.200;8.674;2024-02-16T13:39:43;100296.56;;;18.91;53.59
45323;BME280;31382;50.200;8.674;2024-02-16T13:44:45;100302.19;;;18.78;54.29
45323;BME280;31382;50.200;8.674;2024-02-16T13:49:46;100296.44;;;18.37;54.52
45323;BME280;31382;50.200;8.674;2024-02-16T13:54:48;100296.88;;;18.34;54.61
45323;BME280;31382;50.200;8.674;2024-02-16T13:59:50;100302.19;;;18.29;55.09
45323;BME280;31382;50.200;8.674;2024-02-16T14:04:52;100299.25;;;18.31;55.00
45323;BME280;31382;50.200;8.674;2024-02-16T14:09:54;100309.91;;;18.14;54.99
45323;BME280;31382;50.200;8.674;2024-02-16T14:14:56;100319.66;;;18.21;55.38
45323;BME280;31382;50.200;8.674;2024-02-16T14:19:58;100326.53;;;18.24;55.15
45323;BME280;31382;50.200;8.674;2024-02-16T14:25:00;100329.16;;;18.12;55.56
45323;BME280;31382;50.200;8.674;2024-02-16T14:30:01;100336.50;;;18.12;55.94
45323;BME280;31382;50.200;8.674;2024-02-16T14:35:04;100339.44;;;17.92;56.35
45323;BME280;31382;50.200;8.674;2024-02-16T14:40:07;100340.59;;;17.77;57.00
45323;BME280;31382;50.200;8.674;2024-02-16T14:45:11;100348.50;;;17.86;57.00
45323;BME280;31382;50.200;8.674;2024-02-16T14:50:21;100360.59;;;17.90;57.12
45323;BME280;31382;50.200;8.674;2024-02-16T14:55:23;100357.75;;;17.78;57.16
45323;BME280;31382;50.200;8.674;2024-02-16T15:00:25;100358.25;;;17.68;57.49
45323;BME280;31382;50.200;8.674;2024-02-16T15:05:27;100359.53;;;17.66;57.92
45323;BME280;31382;50.200;8.674;2024-02-16T15:10:28;100362.13;;;17.54;58.30
45323;BME280;31382;50.200;8.674;2024-02-16T15:15:30;100372.09;;;17.35;58.90
45323;BME280;31382;50.200;8.674;2024-02-16T15:20:33;100376.72;;;17.28;59.63
45323;BME280;31382;50.200;8.674;2024-02-16T15:25:35;100382.63;;;17.24;59.89
45323;BME280;31382;50.200;8.674;2024-02-16T15:30:37;100390.69;;;17.38;59.78
45323;BME280;31382;50.200;8.674;2024-02-16T15:35:39;100402.03;;;17.28;60.29
45323;BME280;31382;50.200;8.674;2024-02-16T15:40:41;100401.81;;;17.30;60.00
45323;BME280;31382;50.200;8.674;2024-02-16T15:45:43;100407.91;;;17.25;60.61
45323;BME280;31382;50.200;8.674;2024-02-16T15:50:47;100415.50;;;17.16;60.83
45323;BME280;31382;50.200;8.674;2024-02-16T15:55:53;100412.53;;;17.18;60.86
45323;BME280;31382;50.200;8.674;2024-02-16T16:00:54;100424.00;;;17.20;60.75
45323;BME280;31382;50.200;8.674;2024-02-16T16:05:56;100435.13;;;17.18;60.99
45323;BME280;31382;50.200;8.674;2024-02-16T16:10:59;100428.00;;;17.17;61.22
45323;BME280;31382;50.200;8.674;2024-02-16T16:16:05;100426.16;;;17.11;61.38
45323;BME280;31382;50.200;8.674;2024-02-16T16:21:07;100436.66;;;17.01;61.87
45323;BME280;31382;50.200;8.674;2024-02-16T16:26:09;100435.84;;;16.94;62.20
45323;BME280;31382;50.200;8.674;2024-02-16T16:31:11;100445.28;;;16.91;62.53
45323;BME280;31382;50.200;8.674;2024-02-16T16:36:13;100442.97;;;16.88;62.31
45323;BME280;31382;50.200;8.674;2024-02-16T16:41:16;100453.22;;;16.93;62.36
45323;BME280;31382;50.200;8.674;2024-02-16T16:46:18;100453.00;;;16.88;62.45
45323;BME280;31382;50.200;8.674;2024-02-16T16:51:20;100461.97;;;16.88;62.39
45323;BME280;31382;50.200;8.674;2024-02-16T16:56:22;100462.84;;;16.75;62.77
45323;BME280;31382;50.200;8.674;2024-02-16T17:01:23;100471.63;;;16.71;62.92
45323;BME280;31382;50.200;8.674;2024-02-16T17:06:25;100476.03;;;16.58;63.48
45323;BME280;31382;50.200;8.674;2024-02-16T17:11:27;100495.66;;;16.60;63.64
45323;BME280;31382;50.200;8.674;2024-02-16T17:16:29;100504.44;;;16.56;63.90
45323;BME280;31382;50.200;8.674;2024-02-16T17:21:31;100512.59;;;16.42;64.42
45323;BME280;31382;50.200;8.674;2024-02-16T17:26:34;100524.09;;;16.38;64.70
45323;BME280;31382;50.200;8.674;2024-02-16T17:31:36;100530.34;;;16.25;65.09
45323;BME280;31382;50.200;8.674;2024-02-16T17:36:38;100536.41;;;16.14;65.55
45323;BME280;31382;50.200;8.674;2024-02-16T17:41:40;100539.94;;;16.14;65.80
45323;BME280;31382;50.200;8.674;2024-02-16T17:46:43;100551.19;;;16.11;66.02
45323;BME280;31382;50.200;8.674;2024-02-16T17:51:45;100562.06;;;16.04;66.24
45323;BME280;31382;50.200;8.674;2024-02-16T17:56:47;100563.91;;;15.97;66.99
45323;BME280;31382;50.200;8.674;2024-02-16T18:01:49;100569.75;;;15.94;66.99
45323;BME280;31382;50.200;8.674;2024-02-16T18:06:51;100571.19;;;15.83;67.59
45323;BME280;31382;50.200;8.674;2024-02-16T18:11:53;100578.22;;;15.71;67.86
45323;BME280;31382;50.200;8.674;2024-02-16T18:16:54;100582.56;;;15.59;68.54
45323;BME280;31382;50.200;8.674;2024-02-16T18:21:56;100587.34;;;15.57;68.49
45323;BME280;31382;50.200;8.674;2024-02-16T18:26:58;100593.16;;;15.47;68.92
45323;BME280;31382;50.200;8.674;2024-02-16T18:32:00;100600.56;;;15.32;69.57
45323;BME280;31382;50.200;8.674;2024-02-16T18:37:02;100600.56;;;15.32;69.64
45323;BME280;31382;50.200;8.674;2024-02-16T18:42:05;100599.75;;;15.31;69.55
45323;BME280;31382;50.200;8.674;2024-02-16T18:47:07;100610.56;;;15.24;70.25
45323;BME280;31382;50.200;8.674;2024-02-16T18:52:09;100608.25;;;15.28;70.22
45323;BME280;31382;50.200;8.674;2024-02-16T18:57:10;100619.06;;;15.21;70.12
45323;BME280;31382;50.200;8.674;2024-02-16T19:02:12;100615.47;;;15.14;70.81
45323;BME280;31382;50.200;8.674;2024-02-16T19:07:13;100629.19;;;15.06;71.37
45323;BME280;31382;50.200;8.674;2024-02-16T19:12:17;100629.78;;;15.01;71.55
45323;BME280;31382;50.200;8.674;2024-02-16T19:17:19;100637.63;;;14.90;72.07
45323;BME280;31382;50.200;8.674;2024-02-16T19:22:20;100639.50;;;14.89;71.90
45323;BME280;31382;50.200;8.674;2024-02-16T19:27:22;100641.03;;;14.77;72.46
45323;BME280;31382;50.200;8.674;2024-02-16T19:32:23;100647.66;;;14.67;73.21
45323;BME280;31382;50.200;8.674;2024-02-16T19:37:25;100640.56;;;14.66;73.26
45323;BME280;31382;50.200;8.674;2024-02-16T19:42:28;100643.44;;;14.65;73.34
45323;BME280;31382;50.200;8.674;2024-02-16T19:47:30;100653.41;;;14.58;73.68
45323;BME280;31382;50.200;8.674;2024-02-16T19:52:32;100654.22;;;14.58;73.78
45323;BME280;31382;50.200;8.674;2024-02-16T19:57:34;100667.94;;;14.57;74.09
45323;BME280;31382;50.200;8.674;2024-02-16T20:02:35;100674.84;;;14.59;74.05
45323;BME280;31382;50.200;8.674;2024-02-16T20:07:37;100683.78;;;14.60;74.28
45323;BME280;31382;50.200;8.674;2024-02-16T20:12:44;100683.97;;;14.58;74.15
45323;BME280;31382;50.200;8.674;2024-02-16T20:17:46;100692.44;;;14.55;74.61
45323;BME280;31382;50.200;8.674;2024-02-16T20:22:48;100701.41;;;14.56;74.68
45323;BME280;31382;50.200;8.674;2024-02-16T20:27:51;100708.25;;;14.52;74.96
45323;BME280;31382;50.200;8.674;2024-02-16T20:32:54;100711.22;;;14.57;74.92
45323;BME280;31382;50.200;8.674;2024-02-16T20:38:02;100713.56;;;14.60;74.70
45323;BME280;31382;50.200;8.674;2024-02-16T20:43:04;100722.03;;;14.57;75.21
45323;BME280;31382;50.200;8.674;2024-02-16T20:48:06;100725.03;;;14.47;75.45
45323;BME280;31382;50.200;8.674;2024-02-16T20:53:08;100733.28;;;14.39;75.84
45323;BME280;31382;50.200;8.674;2024-02-16T20:58:09;100746.34;;;14.35;76.01
45323;BME280;31382;50.200;8.674;2024-02-16T21:03:11;100748.28;;;14.20;76.50
45323;BME280;31382;50.200;8.674;2024-02-16T21:08:13;100753.75;;;14.12;76.90
45323;BME280;31382;50.200;8.674;2024-02-16T21:13:16;100761.09;;;14.18;76.76
45323;BME280;31382;50.200;8.674;2024-02-16T21:18:17;100778.09;;;14.12;77.01
45323;BME280;31382;50.200;8.674;2024-02-16T21:23:19;100792.38;;;14.05;77.43
45323;BME280;31382;50.200;8.674;2024-02-16T21:28:21;100825.94;;;13.96;78.04
45323;BME280;31382;50.200;8.674;2024-02-16T21:33:22;100804.97;;;13.83;78.46
45323;BME280;31382;50.200;8.674;2024-02-16T21:38:25;100812.25;;;13.83;78.69
45323;BME280;31382;50.200;8.674;2024-02-16T21:43:27;100820.63;;;13.73;79.08
45323;BME280;31382;50.200;8.674;2024-02-16T21:48:29;100829.94;;;13.71;79.47
45323;BME280;31382;50.200;8.674;2024-02-16T21:53:43;100831.34;;;13.66;79.45
45323;BME280;31382;50.200;8.674;2024-02-16T21:58:45;100839.88;;;13.70;79.29
45323;BME280;31382;50.200;8.674;2024-02-16T22:03:47;100851.06;;;13.67;79.20
45323;BME280;31382;50.200;8.674;2024-02-16T22:08:53;100865.97;;;13.63;79.28
45323;BME280;31382;50.200;8.674;2024-02-16T22:13:56;100875.25;;;13.45;79.50
45323;BME280;31382;50.200;8.674;2024-02-16T22:18:57;100888.19;;;13.50;79.16
45323;BME280;31382;50.200;8.674;2024-02-16T22:23:59;100889.31;;;13.41;79.33
45323;BME280;31382;50.200;8.674;2024-02-16T22:29:01;100900.56;;;13.44;78.87
45323;BME280;31382;50.200;8.674;2024-02-16T22:34:03;100901.75;;;13.42;78.74
45323;BME280;31382;50.200;8.674;2024-02-16T22:39:05;100909.81;;;13.50;78.15
45323;BME280;31382;50.200;8.674;2024-02-16T22:44:07;100911.34;;;13.44;78.06
45323;BME280;31382;50.200;8.674;2024-02-16T22:49:09;100921.16;;;13.45;77.92
45323;BME280;31382;50.200;8.674;2024-02-16T22:54:11;100933.94;;;13.52;77.57
45323;BME280;31382;50.200;8.674;2024-02-16T22:59:13;100934.66;;;13.68;76.50
45323;BME280;31382;50.200;8.674;2024-02-16T23:04:15;100944.97;;;13.65;76.33
45323;BME280;31382;50.200;8.674;2024-02-16T23:09:17;100958.97;;;13.68;76.22
45323;BME280;31382;50.200;8.674;2024-02-16T23:14:19;100964.31;;;13.77;75.58
45323;BME280;31382;50.200;8.674;2024-02-16T23:19:21;100962.00;;;13.88;75.00
45323;BME280;31382;50.200;8.674;2024-02-16T23:24:24;100963.97;;;13.95;74.70
45323;BME280;31382;50.200;8.674;2024-02-16T23:29:25;100970.03;;;13.97;74.46
45323;BME280;31382;50.200;8.674;2024-02-16T23:34:26;100984.63;;;13.87;74.40
45323;BME280;31382;50.200;8.674;2024-02-16T23:39:28;100992.31;;;13.99;73.89
45323;BME280;31382;50.200;8.674;2024-02-16T23:44:30;100998.28;;;13.94;73.74
45323;BME280;31382;50.200;8.674;2024-02-16T23:49:31;101001.84;;;14.09;73.27
45323;BME280;31382;50.200;8.674;2024-02-16T23:54:33;101010.34;;;14.21;73.03
45323;BME280;31382;50.200;8.674;2024-02-16T23:59:34;101026.00;;;14.11;72.93
